sensor_id;sensor_type;location;lat;lon;timestamp;P1;durP1;ratioP1;P2;durP2;ratioP2
21505;SDS011;10914;48.886;9.394;2023-01-05T00:00:55;26.35;;;25.17;;
21505;SDS011;10914;48.886;9.394;2023-01-05T00:03:20;22.92;;;21.92;;
21505;SDS011;10914;48.886;9.394;2023-01-05T00:05:46;22.90;;;21.80;;
21505;SDS011;10914;48.886;9.394;2023-01-05T00:08:11;23.90;;;22.80;;
21505;SDS011;10914;48.886;9.394;2023-01-05T00:10:36;22.00;;;21.00;;
21505;SDS011;10914;48.886;9.394;2023-01-05T00:13:20;22.70;;;21.50;;
21505;SDS011;10914;48.886;9.394;2023-01-05T00:16:07;22.40;;;21.40;;
21505;SDS011;10914;48.886;9.394;2023-01-05T00:18:53;22.95;;;21.75;;
21505;SDS011;10914;48.886;9.394;2023-01-05T00:21:37;23.42;;;22.40;;
21505;SDS011;10914;48.886;9.394;2023-01-05T00:24:21;22.77;;;21.77;;
21505;SDS011;10914;48.886;9.394;2023-01-05T00:26:46;23.10;;;22.08;;
21505;SDS011;10914;48.886;9.394;2023-01-05T00:29:11;24.07;;;23.00;;
21505;SDS011;10914;48.886;9.394;2023-01-05T00:31:36;24.60;;;23.50;;
21505;SDS011;10914;48.886;9.394;2023-01-05T00:34:01;25.67;;;24.57;;
21505;SDS011;10914;48.886;9.394;2023-01-05T00:36:27;25.88;;;24.67;;
21505;SDS011;10914;48.886;9.394;2023-01-05T00:38:52;25.65;;;24.55;;
21505;SDS011;10914;48.886;9.394;2023-01-05T00:41:17;25.58;;;24.48;;
21505;SDS011;10914;48.886;9.394;2023-01-05T00:43:43;25.97;;;24.87;;
21505;SDS011;10914;48.886;9.394;2023-01-05T00:46:08;27.17;;;25.97;;
21505;SDS011;10914;48.886;9.394;2023-01-05T00:48:33;26.88;;;25.58;;
21505;SDS011;10914;48.886;9.394;2023-01-05T00:50:58;26.53;;;25.33;;
21505;SDS011;10914;48.886;9.394;2023-01-05T00:53:23;26.67;;;25.48;;
21505;SDS011;10914;48.886;9.394;2023-01-05T00:55:55;25.73;;;24.63;;
21505;SDS011;10914;48.886;9.394;2023-01-05T00:58:21;25.83;;;24.73;;
21505;SDS011;10914;48.886;9.394;2023-01-05T01:00:46;25.67;;;24.58;;
21505;SDS011;10914;48.886;9.394;2023-01-05T01:03:11;25.90;;;24.77;;
21505;SDS011;10914;48.886;9.394;2023-01-05T01:05:36;25.87;;;24.77;;
21505;SDS011;10914;48.886;9.394;2023-01-05T01:08:01;26.38;;;25.25;;
21505;SDS011;10914;48.886;9.394;2023-01-05T01:10:27;26.83;;;25.48;;
21505;SDS011;10914;48.886;9.394;2023-01-05T01:12:52;26.20;;;25.10;;
21505;SDS011;10914;48.886;9.394;2023-01-05T01:15:17;26.73;;;25.52;;
21505;SDS011;10914;48.886;9.394;2023-01-05T01:17:43;26.02;;;24.92;;
21505;SDS011;10914;48.886;9.394;2023-01-05T01:20:08;26.40;;;25.30;;
21505;SDS011;10914;48.886;9.394;2023-01-05T01:22:33;25.77;;;24.67;;
21505;SDS011;10914;48.886;9.394;2023-01-05T01:24:58;26.00;;;24.90;;
21505;SDS011;10914;48.886;9.394;2023-01-05T01:27:25;26.20;;;25.10;;
21505;SDS011;10914;48.886;9.394;2023-01-05T01:29:50;26.10;;;25.00;;
21505;SDS011;10914;48.886;9.394;2023-01-05T01:32:15;26.00;;;24.90;;
21505;SDS011;10914;48.886;9.394;2023-01-05T01:34:40;25.77;;;24.58;;
21505;SDS011;10914;48.886;9.394;2023-01-05T01:37:06;26.23;;;25.13;;
21505;SDS011;10914;48.886;9.394;2023-01-05T01:39:31;25.92;;;24.83;;
21505;SDS011;10914;48.886;9.394;2023-01-05T01:41:56;26.67;;;25.42;;
21505;SDS011;10914;48.886;9.394;2023-01-05T01:47:05;26.30;;;25.08;;
21505;SDS011;10914;48.886;9.394;2023-01-05T01:49:31;25.02;;;23.92;;
21505;SDS011;10914;48.886;9.394;2023-01-05T01:51:56;25.37;;;24.27;;
21505;SDS011;10914;48.886;9.394;2023-01-05T01:54:21;25.17;;;24.08;;
21505;SDS011;10914;48.886;9.394;2023-01-05T01:56:50;25.52;;;24.42;;
21505;SDS011;10914;48.886;9.394;2023-01-05T01:59:15;25.35;;;24.25;;
21505;SDS011;10914;48.886;9.394;2023-01-05T02:01:41;24.70;;;23.65;;
21505;SDS011;10914;48.886;9.394;2023-01-05T02:04:06;25.05;;;23.95;;
21505;SDS011;10914;48.886;9.394;2023-01-05T02:06:33;25.25;;;24.15;;
21505;SDS011;10914;48.886;9.394;2023-01-05T02:08:58;25.10;;;24.00;;
21505;SDS011;10914;48.886;9.394;2023-01-05T02:14:02;25.42;;;24.25;;
21505;SDS011;10914;48.886;9.394;2023-01-05T02:19:01;25.45;;;24.35;;
21505;SDS011;10914;48.886;9.394;2023-01-05T02:24:12;24.88;;;23.77;;
21505;SDS011;10914;48.886;9.394;2023-01-05T02:29:30;24.70;;;23.63;;
21505;SDS011;10914;48.886;9.394;2023-01-05T02:34:34;25.48;;;24.30;;
21505;SDS011;10914;48.886;9.394;2023-01-05T02:39:59;25.05;;;23.95;;
21505;SDS011;10914;48.886;9.394;2023-01-05T02:42:27;26.15;;;25.05;;
21505;SDS011;10914;48.886;9.394;2023-01-05T02:44:56;26.15;;;25.02;;
21505;SDS011;10914;48.886;9.394;2023-01-05T02:49:49;26.47;;;25.37;;
21505;SDS011;10914;48.886;9.394;2023-01-05T02:52:15;26.27;;;25.17;;
21505;SDS011;10914;48.886;9.394;2023-01-05T02:54:42;26.27;;;25.10;;
21505;SDS011;10914;48.886;9.394;2023-01-05T02:57:11;26.02;;;24.92;;
21505;SDS011;10914;48.886;9.394;2023-01-05T02:59:41;26.23;;;25.13;;
21505;SDS011;10914;48.886;9.394;2023-01-05T03:02:08;26.27;;;25.17;;
21505;SDS011;10914;48.886;9.394;2023-01-05T03:04:42;25.65;;;24.55;;
21505;SDS011;10914;48.886;9.394;2023-01-05T03:07:10;25.60;;;24.50;;
21505;SDS011;10914;48.886;9.394;2023-01-05T03:09:37;26.05;;;24.85;;
21505;SDS011;10914;48.886;9.394;2023-01-05T03:14:59;26.67;;;25.58;;
21505;SDS011;10914;48.886;9.394;2023-01-05T03:17:28;26.10;;;25.00;;
21505;SDS011;10914;48.886;9.394;2023-01-05T03:19:56;25.63;;;24.52;;
21505;SDS011;10914;48.886;9.394;2023-01-05T03:22:27;24.90;;;23.80;;
21505;SDS011;10914;48.886;9.394;2023-01-05T03:25:12;27.25;;;26.05;;
21505;SDS011;10914;48.886;9.394;2023-01-05T03:27:57;27.27;;;26.08;;
21505;SDS011;10914;48.886;9.394;2023-01-05T03:30:45;26.05;;;24.85;;
21505;SDS011;10914;48.886;9.394;2023-01-05T03:33:40;27.20;;;26.00;;
21505;SDS011;10914;48.886;9.394;2023-01-05T03:36:26;25.63;;;24.52;;
21505;SDS011;10914;48.886;9.394;2023-01-05T03:38:53;24.52;;;23.42;;
21505;SDS011;10914;48.886;9.394;2023-01-05T03:41:20;27.30;;;26.10;;
21505;SDS011;10914;48.886;9.394;2023-01-05T03:43:47;28.35;;;27.15;;
21505;SDS011;10914;48.886;9.394;2023-01-05T03:46:17;29.33;;;28.02;;
21505;SDS011;10914;48.886;9.394;2023-01-05T03:48:43;27.67;;;26.48;;
21505;SDS011;10914;48.886;9.394;2023-01-05T03:51:09;26.52;;;25.33;;
21505;SDS011;10914;48.886;9.394;2023-01-05T03:53:34;27.98;;;26.77;;
21505;SDS011;10914;48.886;9.394;2023-01-05T03:56:00;28.98;;;27.67;;
21505;SDS011;10914;48.886;9.394;2023-01-05T03:58:25;30.17;;;28.77;;
21505;SDS011;10914;48.886;9.394;2023-01-05T04:00:50;31.45;;;30.05;;
21505;SDS011;10914;48.886;9.394;2023-01-05T04:03:16;30.37;;;28.97;;
21505;SDS011;10914;48.886;9.394;2023-01-05T04:05:41;31.27;;;29.88;;
21505;SDS011;10914;48.886;9.394;2023-01-05T04:08:06;30.75;;;29.45;;
21505;SDS011;10914;48.886;9.394;2023-01-05T04:10:31;29.30;;;27.87;;
21505;SDS011;10914;48.886;9.394;2023-01-05T04:12:57;30.73;;;29.35;;
21505;SDS011;10914;48.886;9.394;2023-01-05T04:15:22;26.45;;;25.30;;
21505;SDS011;10914;48.886;9.394;2023-01-05T04:17:47;27.67;;;26.35;;
21505;SDS011;10914;48.886;9.394;2023-01-05T04:20:13;25.47;;;24.33;;
21505;SDS011;10914;48.886;9.394;2023-01-05T04:22:38;27.00;;;25.83;;
21505;SDS011;10914;48.886;9.394;2023-01-05T04:25:03;24.63;;;23.55;;
21505;SDS011;10914;48.886;9.394;2023-01-05T04:27:28;24.80;;;23.73;;
21505;SDS011;10914;48.886;9.394;2023-01-05T04:29:54;25.60;;;24.45;;
21505;SDS011;10914;48.886;9.394;2023-01-05T04:32:19;25.40;;;24.27;;
21505;SDS011;10914;48.886;9.394;2023-01-05T04:34:44;26.48;;;25.33;;
21505;SDS011;10914;48.886;9.394;2023-01-05T04:37:09;26.23;;;25.07;;
21505;SDS011;10914;48.886;9.394;2023-01-05T04:39:34;27.48;;;26.27;;
21505;SDS011;10914;48.886;9.394;2023-01-05T04:42:00;29.42;;;28.15;;
21505;SDS011;10914;48.886;9.394;2023-01-05T04:44:25;29.97;;;28.63;;
21505;SDS011;10914;48.886;9.394;2023-01-05T04:46:50;32.90;;;31.45;;
21505;SDS011;10914;48.886;9.394;2023-01-05T04:49:15;28.77;;;27.50;;
21505;SDS011;10914;48.886;9.394;2023-01-05T04:51:41;31.23;;;29.85;;
21505;SDS011;10914;48.886;9.394;2023-01-05T04:54:06;30.70;;;29.38;;
21505;SDS011;10914;48.886;9.394;2023-01-05T04:56:31;28.85;;;27.60;;
21505;SDS011;10914;48.886;9.394;2023-01-05T04:58:56;31.10;;;29.70;;
21505;SDS011;10914;48.886;9.394;2023-01-05T05:01:21;28.93;;;27.67;;
21505;SDS011;10914;48.886;9.394;2023-01-05T05:03:47;31.17;;;29.83;;
21505;SDS011;10914;48.886;9.394;2023-01-05T05:06:12;27.50;;;26.33;;
21505;SDS011;10914;48.886;9.394;2023-01-05T05:08:37;32.07;;;30.57;;
21505;SDS011;10914;48.886;9.394;2023-01-05T05:11:02;28.95;;;27.70;;
21505;SDS011;10914;48.886;9.394;2023-01-05T05:13:28;29.02;;;27.77;;
21505;SDS011;10914;48.886;9.394;2023-01-05T05:15:53;29.77;;;28.48;;
21505;SDS011;10914;48.886;9.394;2023-01-05T05:18:18;27.23;;;25.95;;
21505;SDS011;10914;48.886;9.394;2023-01-05T05:20:45;26.65;;;25.50;;
21505;SDS011;10914;48.886;9.394;2023-01-05T05:23:12;27.33;;;26.13;;
21505;SDS011;10914;48.886;9.394;2023-01-05T05:25:38;24.35;;;23.25;;
21505;SDS011;10914;48.886;9.394;2023-01-05T05:28:03;25.17;;;24.08;;
21505;SDS011;10914;48.886;9.394;2023-01-05T05:30:28;24.75;;;23.70;;
21505;SDS011;10914;48.886;9.394;2023-01-05T05:32:53;28.10;;;26.83;;
21505;SDS011;10914;48.886;9.394;2023-01-05T05:35:19;31.75;;;30.38;;
21505;SDS011;10914;48.886;9.394;2023-01-05T05:37:44;29.23;;;27.97;;
21505;SDS011;10914;48.886;9.394;2023-01-05T05:40:09;31.45;;;30.10;;
21505;SDS011;10914;48.886;9.394;2023-01-05T05:42:35;31.95;;;30.55;;
21505;SDS011;10914;48.886;9.394;2023-01-05T05:45:00;32.35;;;30.90;;
21505;SDS011;10914;48.886;9.394;2023-01-05T05:47:25;35.80;;;34.13;;
21505;SDS011;10914;48.886;9.394;2023-01-05T05:49:50;26.20;;;25.07;;
21505;SDS011;10914;48.886;9.394;2023-01-05T05:52:15;27.02;;;25.83;;
21505;SDS011;10914;48.886;9.394;2023-01-05T05:54:40;24.90;;;23.80;;
21505;SDS011;10914;48.886;9.394;2023-01-05T05:57:06;22.77;;;21.77;;
21505;SDS011;10914;48.886;9.394;2023-01-05T05:59:31;23.83;;;22.83;;
21505;SDS011;10914;48.886;9.394;2023-01-05T06:01:56;23.40;;;22.38;;
21505;SDS011;10914;48.886;9.394;2023-01-05T06:04:21;23.25;;;22.15;;
21505;SDS011;10914;48.886;9.394;2023-01-05T06:06:46;34.60;;;33.03;;
21505;SDS011;10914;48.886;9.394;2023-01-05T06:09:12;29.63;;;28.00;;
21505;SDS011;10914;48.886;9.394;2023-01-05T06:11:37;32.63;;;30.92;;
21505;SDS011;10914;48.886;9.394;2023-01-05T06:14:02;25.87;;;24.67;;
21505;SDS011;10914;48.886;9.394;2023-01-05T06:16:28;25.92;;;24.55;;
21505;SDS011;10914;48.886;9.394;2023-01-05T06:18:53;30.20;;;28.77;;
21505;SDS011;10914;48.886;9.394;2023-01-05T06:21:19;30.10;;;28.73;;
21505;SDS011;10914;48.886;9.394;2023-01-05T06:23:46;31.55;;;30.10;;
21505;SDS011;10914;48.886;9.394;2023-01-05T06:26:11;34.83;;;33.03;;
21505;SDS011;10914;48.886;9.394;2023-01-05T06:28:36;34.20;;;32.42;;
21505;SDS011;10914;48.886;9.394;2023-01-05T06:31:02;30.08;;;28.50;;
21505;SDS011;10914;48.886;9.394;2023-01-05T06:33:27;27.63;;;26.33;;
21505;SDS011;10914;48.886;9.394;2023-01-05T06:35:52;26.33;;;24.92;;
21505;SDS011;10914;48.886;9.394;2023-01-05T06:38:17;27.13;;;25.73;;
21505;SDS011;10914;48.886;9.394;2023-01-05T06:40:44;26.33;;;24.90;;
21505;SDS011;10914;48.886;9.394;2023-01-05T06:43:10;27.27;;;25.88;;
21505;SDS011;10914;48.886;9.394;2023-01-05T06:45:36;27.52;;;26.13;;
21505;SDS011;10914;48.886;9.394;2023-01-05T06:48:01;27.25;;;25.85;;
21505;SDS011;10914;48.886;9.394;2023-01-05T06:50:28;27.40;;;26.00;;
21505;SDS011;10914;48.886;9.394;2023-01-05T06:52:54;28.00;;;26.40;;
21505;SDS011;10914;48.886;9.394;2023-01-05T06:55:19;28.17;;;26.58;;
21505;SDS011;10914;48.886;9.394;2023-01-05T06:57:46;30.38;;;28.67;;
21505;SDS011;10914;48.886;9.394;2023-01-05T07:00:11;29.48;;;27.67;;
21505;SDS011;10914;48.886;9.394;2023-01-05T07:02:37;33.45;;;31.25;;
21505;SDS011;10914;48.886;9.394;2023-01-05T07:05:02;27.98;;;26.40;;
21505;SDS011;10914;48.886;9.394;2023-01-05T07:07:27;28.15;;;26.45;;
21505;SDS011;10914;48.886;9.394;2023-01-05T07:09:52;28.63;;;26.83;;
21505;SDS011;10914;48.886;9.394;2023-01-05T07:12:18;26.98;;;25.42;;
21505;SDS011;10914;48.886;9.394;2023-01-05T07:14:43;27.65;;;26.25;;
21505;SDS011;10914;48.886;9.394;2023-01-05T07:17:08;27.02;;;25.45;;
21505;SDS011;10914;48.886;9.394;2023-01-05T07:19:33;29.37;;;27.77;;
21505;SDS011;10914;48.886;9.394;2023-01-05T07:21:59;29.90;;;28.05;;
21505;SDS011;10914;48.886;9.394;2023-01-05T07:24:24;30.15;;;28.25;;
21505;SDS011;10914;48.886;9.394;2023-01-05T07:26:49;32.60;;;30.60;;
21505;SDS011;10914;48.886;9.394;2023-01-05T07:29:15;27.88;;;26.45;;
21505;SDS011;10914;48.886;9.394;2023-01-05T07:31:40;31.48;;;29.73;;
21505;SDS011;10914;48.886;9.394;2023-01-05T07:34:05;27.27;;;25.58;;
21505;SDS011;10914;48.886;9.394;2023-01-05T07:36:32;28.20;;;26.30;;
21505;SDS011;10914;48.886;9.394;2023-01-05T07:38:57;29.05;;;27.13;;
21505;SDS011;10914;48.886;9.394;2023-01-05T07:41:22;29.77;;;28.08;;
21505;SDS011;10914;48.886;9.394;2023-01-05T07:43:48;29.52;;;27.52;;
21505;SDS011;10914;48.886;9.394;2023-01-05T07:46:14;28.83;;;27.13;;
21505;SDS011;10914;48.886;9.394;2023-01-05T07:48:39;27.38;;;25.70;;
21505;SDS011;10914;48.886;9.394;2023-01-05T07:51:05;25.60;;;24.08;;
21505;SDS011;10914;48.886;9.394;2023-01-05T07:53:31;25.25;;;23.77;;
21505;SDS011;10914;48.886;9.394;2023-01-05T07:55:59;28.75;;;26.95;;
21505;SDS011;10914;48.886;9.394;2023-01-05T07:58:24;29.20;;;27.13;;
21505;SDS011;10914;48.886;9.394;2023-01-05T08:00:50;25.38;;;23.77;;
21505;SDS011;10914;48.886;9.394;2023-01-05T08:03:15;30.30;;;28.10;;
21505;SDS011;10914;48.886;9.394;2023-01-05T08:05:41;39.92;;;37.20;;
21505;SDS011;10914;48.886;9.394;2023-01-05T08:08:06;31.27;;;29.15;;
21505;SDS011;10914;48.886;9.394;2023-01-05T08:10:31;27.87;;;25.93;;
21505;SDS011;10914;48.886;9.394;2023-01-05T08:13:00;26.58;;;25.08;;
21505;SDS011;10914;48.886;9.394;2023-01-05T08:15:44;25.23;;;23.52;;
21505;SDS011;10914;48.886;9.394;2023-01-05T08:18:09;24.52;;;23.05;;
21505;SDS011;10914;48.886;9.394;2023-01-05T08:20:34;24.73;;;23.20;;
21505;SDS011;10914;48.886;9.394;2023-01-05T08:22:59;26.13;;;24.02;;
21505;SDS011;10914;48.886;9.394;2023-01-05T08:25:25;24.98;;;23.50;;
21505;SDS011;10914;48.886;9.394;2023-01-05T08:27:50;25.40;;;23.67;;
21505;SDS011;10914;48.886;9.394;2023-01-05T08:30:15;25.57;;;23.77;;
21505;SDS011;10914;48.886;9.394;2023-01-05T08:32:40;26.50;;;24.70;;
21505;SDS011;10914;48.886;9.394;2023-01-05T08:35:06;26.25;;;24.52;;
21505;SDS011;10914;48.886;9.394;2023-01-05T08:37:31;26.55;;;24.83;;
21505;SDS011;10914;48.886;9.394;2023-01-05T08:39:56;32.07;;;30.17;;
21505;SDS011;10914;48.886;9.394;2023-01-05T08:42:22;27.83;;;26.08;;
21505;SDS011;10914;48.886;9.394;2023-01-05T08:44:47;29.27;;;27.52;;
21505;SDS011;10914;48.886;9.394;2023-01-05T08:47:12;30.20;;;28.35;;
21505;SDS011;10914;48.886;9.394;2023-01-05T08:49:37;29.10;;;27.20;;
21505;SDS011;10914;48.886;9.394;2023-01-05T08:52:02;30.90;;;29.00;;
21505;SDS011;10914;48.886;9.394;2023-01-05T08:54:28;29.52;;;27.88;;
21505;SDS011;10914;48.886;9.394;2023-01-05T08:56:53;30.10;;;28.15;;
21505;SDS011;10914;48.886;9.394;2023-01-05T08:59:18;30.58;;;28.58;;
21505;SDS011;10914;48.886;9.394;2023-01-05T09:01:44;30.88;;;28.90;;
21505;SDS011;10914;48.886;9.394;2023-01-05T09:04:09;29.90;;;27.93;;
21505;SDS011;10914;48.886;9.394;2023-01-05T09:06:34;31.10;;;29.20;;
21505;SDS011;10914;48.886;9.394;2023-01-05T09:08:59;32.88;;;30.77;;
21505;SDS011;10914;48.886;9.394;2023-01-05T09:11:25;32.20;;;30.08;;
21505;SDS011;10914;48.886;9.394;2023-01-05T09:13:51;32.20;;;30.40;;
21505;SDS011;10914;48.886;9.394;2023-01-05T09:16:18;32.97;;;31.00;;
21505;SDS011;10914;48.886;9.394;2023-01-05T09:18:43;39.75;;;37.50;;
21505;SDS011;10914;48.886;9.394;2023-01-05T09:21:09;32.60;;;30.33;;
21505;SDS011;10914;48.886;9.394;2023-01-05T09:23:34;39.92;;;37.40;;
21505;SDS011;10914;48.886;9.394;2023-01-05T09:26:02;33.28;;;31.38;;
21505;SDS011;10914;48.886;9.394;2023-01-05T09:28:27;32.47;;;30.63;;
21505;SDS011;10914;48.886;9.394;2023-01-05T09:30:52;33.10;;;31.30;;
21505;SDS011;10914;48.886;9.394;2023-01-05T09:33:18;32.77;;;30.67;;
21505;SDS011;10914;48.886;9.394;2023-01-05T09:35:43;33.75;;;31.20;;
21505;SDS011;10914;48.886;9.394;2023-01-05T09:38:08;33.90;;;31.60;;
21505;SDS011;10914;48.886;9.394;2023-01-05T09:40:34;33.37;;;31.27;;
21505;SDS011;10914;48.886;9.394;2023-01-05T09:43:01;34.35;;;32.22;;
21505;SDS011;10914;48.886;9.394;2023-01-05T09:45:26;31.30;;;29.38;;
21505;SDS011;10914;48.886;9.394;2023-01-05T09:47:52;29.80;;;28.08;;
21505;SDS011;10914;48.886;9.394;2023-01-05T09:50:19;30.08;;;27.88;;
21505;SDS011;10914;48.886;9.394;2023-01-05T09:52:45;29.30;;;27.23;;
21505;SDS011;10914;48.886;9.394;2023-01-05T09:55:14;28.77;;;26.77;;
21505;SDS011;10914;48.886;9.394;2023-01-05T09:57:41;29.88;;;28.02;;
21505;SDS011;10914;48.886;9.394;2023-01-05T10:00:10;30.95;;;28.17;;
21505;SDS011;10914;48.886;9.394;2023-01-05T10:02:43;30.33;;;28.20;;
21505;SDS011;10914;48.886;9.394;2023-01-05T10:05:10;29.10;;;27.33;;
21505;SDS011;10914;48.886;9.394;2023-01-05T10:10:04;28.10;;;26.25;;
21505;SDS011;10914;48.886;9.394;2023-01-05T10:12:33;28.35;;;25.63;;
21505;SDS011;10914;48.886;9.394;2023-01-05T10:15:19;27.60;;;25.65;;
21505;SDS011;10914;48.886;9.394;2023-01-05T10:17:46;27.83;;;25.88;;
21505;SDS011;10914;48.886;9.394;2023-01-05T10:20:15;29.75;;;27.13;;
21505;SDS011;10914;48.886;9.394;2023-01-05T10:30:21;27.75;;;25.70;;
21505;SDS011;10914;48.886;9.394;2023-01-05T10:32:51;28.40;;;26.20;;
21505;SDS011;10914;48.886;9.394;2023-01-05T10:37:47;28.35;;;25.85;;
21505;SDS011;10914;48.886;9.394;2023-01-05T10:42:43;26.83;;;24.93;;
21505;SDS011;10914;48.886;9.394;2023-01-05T10:45:15;28.38;;;26.42;;
21505;SDS011;10914;48.886;9.394;2023-01-05T10:47:41;29.73;;;26.95;;
21505;SDS011;10914;48.886;9.394;2023-01-05T10:50:18;30.25;;;27.88;;
21505;SDS011;10914;48.886;9.394;2023-01-05T10:52:46;29.08;;;26.58;;
21505;SDS011;10914;48.886;9.394;2023-01-05T10:55:15;29.25;;;26.73;;
21505;SDS011;10914;48.886;9.394;2023-01-05T10:57:41;28.23;;;26.30;;
21505;SDS011;10914;48.886;9.394;2023-01-05T11:00:17;30.70;;;28.00;;
21505;SDS011;10914;48.886;9.394;2023-01-05T11:02:50;26.95;;;25.02;;
21505;SDS011;10914;48.886;9.394;2023-01-05T11:05:29;28.27;;;26.25;;
21505;SDS011;10914;48.886;9.394;2023-01-05T11:07:57;26.25;;;24.35;;
21505;SDS011;10914;48.886;9.394;2023-01-05T11:10:37;25.92;;;24.05;;
21505;SDS011;10914;48.886;9.394;2023-01-05T11:13:06;26.30;;;23.92;;
21505;SDS011;10914;48.886;9.394;2023-01-05T11:15:41;26.63;;;24.25;;
21505;SDS011;10914;48.886;9.394;2023-01-05T11:18:13;26.33;;;24.08;;
21505;SDS011;10914;48.886;9.394;2023-01-05T11:21:02;26.25;;;24.13;;
21505;SDS011;10914;48.886;9.394;2023-01-05T11:23:35;25.55;;;23.67;;
21505;SDS011;10914;48.886;9.394;2023-01-05T11:28:53;26.08;;;24.08;;
21505;SDS011;10914;48.886;9.394;2023-01-05T11:31:21;26.83;;;24.30;;
21505;SDS011;10914;48.886;9.394;2023-01-05T11:33:46;28.42;;;25.98;;
21505;SDS011;10914;48.886;9.394;2023-01-05T11:36:18;27.83;;;25.83;;
21505;SDS011;10914;48.886;9.394;2023-01-05T11:38:44;27.38;;;25.00;;
21505;SDS011;10914;48.886;9.394;2023-01-05T11:41:14;26.42;;;24.50;;
21505;SDS011;10914;48.886;9.394;2023-01-05T11:43:41;26.77;;;24.85;;
21505;SDS011;10914;48.886;9.394;2023-01-05T11:46:10;27.63;;;25.40;;
21505;SDS011;10914;48.886;9.394;2023-01-05T11:48:38;28.45;;;26.17;;
21505;SDS011;10914;48.886;9.394;2023-01-05T11:51:06;28.23;;;25.50;;
21505;SDS011;10914;48.886;9.394;2023-01-05T11:55:58;27.60;;;25.73;;
21505;SDS011;10914;48.886;9.394;2023-01-05T11:58:26;28.17;;;26.23;;
21505;SDS011;10914;48.886;9.394;2023-01-05T12:06:10;27.98;;;25.98;;
21505;SDS011;10914;48.886;9.394;2023-01-05T12:08:42;27.90;;;25.52;;
21505;SDS011;10914;48.886;9.394;2023-01-05T12:11:16;27.08;;;25.20;;
21505;SDS011;10914;48.886;9.394;2023-01-05T12:16:49;27.98;;;25.75;;
21505;SDS011;10914;48.886;9.394;2023-01-05T12:19:19;28.83;;;26.42;;
21505;SDS011;10914;48.886;9.394;2023-01-05T12:21:57;27.23;;;25.02;;
21505;SDS011;10914;48.886;9.394;2023-01-05T12:27:05;27.27;;;24.55;;
21505;SDS011;10914;48.886;9.394;2023-01-05T12:29:43;27.08;;;24.60;;
21505;SDS011;10914;48.886;9.394;2023-01-05T12:32:14;27.75;;;25.30;;
21505;SDS011;10914;48.886;9.394;2023-01-05T12:47:34;28.23;;;26.08;;
21505;SDS011;10914;48.886;9.394;2023-01-05T12:50:10;29.55;;;27.30;;
21505;SDS011;10914;48.886;9.394;2023-01-05T12:52:40;30.55;;;28.13;;
21505;SDS011;10914;48.886;9.394;2023-01-05T12:55:22;30.55;;;28.25;;
21505;SDS011;10914;48.886;9.394;2023-01-05T12:58:35;33.13;;;30.33;;
21505;SDS011;10914;48.886;9.394;2023-01-05T13:00:35;33.50;;;31.08;;
21505;SDS011;10914;48.886;9.394;2023-01-05T13:03:01;32.72;;;30.55;;
21505;SDS011;10914;48.886;9.394;2023-01-05T13:08:10;31.45;;;28.65;;
21505;SDS011;10914;48.886;9.394;2023-01-05T13:13:15;32.40;;;30.08;;
21505;SDS011;10914;48.886;9.394;2023-01-05T13:15:53;35.10;;;32.30;;
21505;SDS011;10914;48.886;9.394;2023-01-05T13:18:20;33.90;;;31.27;;
21505;SDS011;10914;48.886;9.394;2023-01-05T13:20:50;33.00;;;30.05;;
21505;SDS011;10914;48.886;9.394;2023-01-05T13:23:22;34.35;;;31.60;;
21505;SDS011;10914;48.886;9.394;2023-01-05T13:28:19;33.10;;;30.58;;
21505;SDS011;10914;48.886;9.394;2023-01-05T13:43:56;32.38;;;30.13;;
21505;SDS011;10914;48.886;9.394;2023-01-05T13:46:28;30.92;;;28.48;;
21505;SDS011;10914;48.886;9.394;2023-01-05T13:54:43;31.42;;;29.17;;
21505;SDS011;10914;48.886;9.394;2023-01-05T13:57:15;32.53;;;29.85;;
21505;SDS011;10914;48.886;9.394;2023-01-05T13:59:42;34.67;;;31.77;;
21505;SDS011;10914;48.886;9.394;2023-01-05T14:02:23;33.60;;;31.05;;
21505;SDS011;10914;48.886;9.394;2023-01-05T14:04:49;32.80;;;30.38;;
21505;SDS011;10914;48.886;9.394;2023-01-05T14:07:14;32.75;;;30.42;;
21505;SDS011;10914;48.886;9.394;2023-01-05T14:09:45;33.67;;;30.75;;
21505;SDS011;10914;48.886;9.394;2023-01-05T14:20:29;31.70;;;29.70;;
21505;SDS011;10914;48.886;9.394;2023-01-05T14:22:53;33.10;;;30.40;;
21505;SDS011;10914;48.886;9.394;2023-01-05T14:30:47;31.40;;;29.10;;
21505;SDS011;10914;48.886;9.394;2023-01-05T14:33:12;33.75;;;30.88;;
21505;SDS011;10914;48.886;9.394;2023-01-05T14:35:40;33.33;;;30.77;;
21505;SDS011;10914;48.886;9.394;2023-01-05T14:38:14;32.28;;;29.88;;
21505;SDS011;10914;48.886;9.394;2023-01-05T14:40:41;31.33;;;29.00;;
21505;SDS011;10914;48.886;9.394;2023-01-05T14:45:55;31.02;;;28.67;;
21505;SDS011;10914;48.886;9.394;2023-01-05T14:48:29;33.08;;;30.08;;
21505;SDS011;10914;48.886;9.394;2023-01-05T14:51:09;31.13;;;28.52;;
21505;SDS011;10914;48.886;9.394;2023-01-05T14:53:44;32.08;;;29.23;;
21505;SDS011;10914;48.886;9.394;2023-01-05T15:03:52;32.58;;;30.15;;
21505;SDS011;10914;48.886;9.394;2023-01-05T15:11:38;31.98;;;29.67;;
21505;SDS011;10914;48.886;9.394;2023-01-05T15:14:09;35.88;;;32.88;;
21505;SDS011;10914;48.886;9.394;2023-01-05T15:19:43;35.05;;;32.55;;
21505;SDS011;10914;48.886;9.394;2023-01-05T15:32:56;34.50;;;31.75;;
21505;SDS011;10914;48.886;9.394;2023-01-05T15:35:28;34.45;;;31.98;;
21505;SDS011;10914;48.886;9.394;2023-01-05T15:37:56;33.50;;;30.75;;
21505;SDS011;10914;48.886;9.394;2023-01-05T15:40:36;34.13;;;31.42;;
21505;SDS011;10914;48.886;9.394;2023-01-05T15:43:01;33.17;;;30.92;;
21505;SDS011;10914;48.886;9.394;2023-01-05T15:45:31;33.92;;;31.00;;
21505;SDS011;10914;48.886;9.394;2023-01-05T15:47:57;33.13;;;31.02;;
21505;SDS011;10914;48.886;9.394;2023-01-05T15:50:28;32.45;;;29.80;;
21505;SDS011;10914;48.886;9.394;2023-01-05T15:52:57;32.92;;;30.40;;
21505;SDS011;10914;48.886;9.394;2023-01-05T15:55:23;35.22;;;32.17;;
21505;SDS011;10914;48.886;9.394;2023-01-05T15:58:02;38.90;;;35.42;;
21505;SDS011;10914;48.886;9.394;2023-01-05T16:00:30;36.88;;;33.58;;
21505;SDS011;10914;48.886;9.394;2023-01-05T16:02:56;45.55;;;40.97;;
21505;SDS011;10914;48.886;9.394;2023-01-05T16:05:25;38.72;;;35.65;;
21505;SDS011;10914;48.886;9.394;2023-01-05T16:07:57;43.72;;;39.65;;
21505;SDS011;10914;48.886;9.394;2023-01-05T16:10:57;39.15;;;35.60;;
21505;SDS011;10914;48.886;9.394;2023-01-05T16:13:16;36.00;;;32.83;;
21505;SDS011;10914;48.886;9.394;2023-01-05T16:15:42;32.88;;;30.52;;
21505;SDS011;10914;48.886;9.394;2023-01-05T16:18:09;32.75;;;30.58;;
21505;SDS011;10914;48.886;9.394;2023-01-05T16:20:37;34.08;;;31.52;;
21505;SDS011;10914;48.886;9.394;2023-01-05T16:23:11;34.80;;;32.25;;
21505;SDS011;10914;48.886;9.394;2023-01-05T16:25:41;33.55;;;31.25;;
21505;SDS011;10914;48.886;9.394;2023-01-05T16:28:07;34.05;;;31.42;;
21505;SDS011;10914;48.886;9.394;2023-01-05T16:30:39;32.95;;;30.58;;
21505;SDS011;10914;48.886;9.394;2023-01-05T16:35:41;33.42;;;30.98;;
21505;SDS011;10914;48.886;9.394;2023-01-05T16:40:32;33.55;;;31.25;;
21505;SDS011;10914;48.886;9.394;2023-01-05T16:42:58;32.38;;;29.83;;
21505;SDS011;10914;48.886;9.394;2023-01-05T16:45:27;31.70;;;29.50;;
21505;SDS011;10914;48.886;9.394;2023-01-05T16:47:54;30.75;;;28.55;;